Time;durP1;ratioP1;P1;durP2;ratioP2;P2;SDS_P1;SDS_P2;PMS_P1;PMS_P2;Temp;Humidity;BMP_temperature;BMP_pressure;BME280_temperature;BME280_humidity;BME280_pressure;Samples;Min_cycle;Max_cycle;Signal;HPM_P1;HPM_P2
2023/02/20 00:04:48;;;;;;;1.67;0.98;;;;;;;;;;10489258;28;20370;-79
2023/02/20 00:09:50;;;;;;;2.15;0.85;;;;;;;;;;10471742;28;20047;-78
2023/02/20 00:14:53;;;;;;;0.98;0.63;;;;;;;;;;10472266;28;20040;-78
2023/02/20 00:19:57;;;;;;;1.35;0.68;;;;;;;;;;10484293;28;20366;-78
2023/02/20 00:25:01;;;;;;;3.13;1.30;;;;;;;;;;10478549;28;20048;-78
2023/02/20 00:30:04;;;;;;;2.90;1.10;;;;;;;;;;10486309;28;20489;-77
2023/02/20 00:35:10;;;;;;;2.75;1.45;;;;;;;;;;10481819;28;20559;-78
2023/02/20 00:40:13;;;;;;;2.50;1.08;;;;;;;;;;10484949;28;20041;-76
2023/02/20 00:45:17;;;;;;;3.70;1.27;;;;;;;;;;10487336;28;20144;-78
2023/02/20 00:50:21;;;;;;;2.80;1.00;;;;;;;;;;10481065;28;20041;-78
2023/02/20 00:55:24;;;;;;;2.92;1.40;;;;;;;;;;10477558;28;20055;-77
2023/02/20 01:00:28;;;;;;;0.57;0.40;;;;;;;;;;10481138;28;20036;-77
2023/02/20 01:05:32;;;;;;;3.85;1.17;;;;;;;;;;10481675;28;20128;-77
2023/02/20 01:10:35;;;;;;;;;;;;;;;;;;10476924;28;20048;-78
2023/02/20 01:15:37;;;;;;;3.05;1.30;;;;;;;;;;10481014;28;19921;-78
2023/02/20 01:20:41;;;;;;;3.75;1.60;;;;;;;;;;10478387;28;20399;-78
2023/02/20 01:25:44;;;;;;;2.67;1.13;;;;;;;;;;10481831;28;20059;-79
2023/02/20 01:30:46;;;;;;;4.55;1.50;;;;;;;;;;10492131;28;20029;-79
2023/02/20 01:35:50;;;;;;;1.98;0.90;;;;;;;;;;10478016;28;20051;-80
2023/02/20 01:40:53;;;;;;;0.85;0.80;;;;;;;;;;10482304;28;20047;-79
2023/02/20 01:46:11;;;;;;;3.08;1.13;;;;;;;;;;10487686;28;20082;-79
2023/02/20 01:51:16;;;;;;;2.35;1.08;;;;;;;;;;10480761;28;20526;-78
2023/02/20 01:56:19;;;;;;;3.60;1.20;;;;;;;;;;10478152;28;20052;-78
2023/02/20 02:01:21;;;;;;;1.30;0.85;;;;;;;;;;10483743;28;20044;-78
2023/02/20 02:06:28;;;;;;;3.88;1.70;;;;;;;;;;10482373;28;20045;-78
2023/02/20 02:11:31;;;;;;;3.47;1.10;;;;;;;;;;10485187;28;20068;-77
2023/02/20 02:16:37;;;;;;;3.08;1.65;;;;;;;;;;10490626;28;20490;-78
2023/02/20 02:21:58;;;;;;;4.30;1.23;;;;;;;;;;10504200;28;20039;-78
2023/02/20 02:27:31;;;;;;;3.30;1.40;;;;;;;;;;10478852;28;20045;-78
2023/02/20 02:32:58;;;;;;;3.13;1.63;;;;;;;;;;10505100;28;20040;-80
2023/02/20 02:38:05;;;;;;;2.22;1.20;;;;;;;;;;10430191;28;20052;-78
2023/02/20 02:43:10;;;;;;;2.38;1.38;;;;;;;;;;10504333;28;20035;-77
2023/02/20 02:48:17;;;;;;;2.45;1.15;;;;;;;;;;10491056;28;20090;-78
2023/02/20 02:53:21;;;;;;;4.97;2.28;;;;;;;;;;10489582;28;20045;-78
2023/02/20 02:58:23;;;;;;;;;;;;;;;;;;10488971;28;20077;-78
2023/02/20 03:03:30;;;;;;;1.40;0.95;;;;;;;;;;10472142;28;19921;-78
2023/02/20 03:08:38;;;;;;;2.40;1.35;;;;;;;;;;10492985;28;20048;-78
2023/02/20 03:19:05;;;;;;;3.17;1.70;;;;;;;;;;10490620;28;20100;-78
2023/02/20 03:24:11;;;;;;;2.47;1.25;;;;;;;;;;10472550;28;20040;-78
2023/02/20 03:29:16;;;;;;;1.88;1.40;;;;;;;;;;10482930;28;20040;-79
2023/02/20 03:45:06;;;;;;;2.85;1.48;;;;;;;;;;10485206;28;20071;-78
2023/02/20 03:50:29;;;;;;;3.67;1.65;;;;;;;;;;10484661;28;20040;-78
2023/02/20 03:55:33;;;;;;;6.15;1.48;;;;;;;;;;10481008;28;20131;-78
2023/02/20 04:00:35;;;;;;;;;;;;;;;;;;10486641;28;20051;-77
2023/02/20 04:05:40;;;;;;;2.42;1.55;;;;;;;;;;10480195;28;19927;-78
2023/02/20 04:10:47;;;;;;;2.72;1.23;;;;;;;;;;10486130;28;20518;-78
2023/02/20 04:15:50;;;;;;;2.90;1.83;;;;;;;;;;10492147;28;20090;-79
2023/02/20 04:20:54;;;;;;;2.30;1.55;;;;;;;;;;10485643;28;20048;-78
2023/02/20 04:26:00;;;;;;;2.97;1.50;;;;;;;;;;10479314;28;20044;-77
2023/02/20 04:31:03;;;;;;;5.47;1.48;;;;;;;;;;10478878;28;20461;-77
2023/02/20 04:36:06;;;;;;;4.85;1.60;;;;;;;;;;10483914;28;20099;-77
2023/02/20 04:41:10;;;;;;;5.53;1.80;;;;;;;;;;10482211;28;20040;-77
2023/02/20 04:46:13;;;;;;;4.15;1.77;;;;;;;;;;10486304;28;20040;-78
2023/02/20 04:51:16;;;;;;;1.37;0.90;;;;;;;;;;10484302;28;20521;-80
2023/02/20 04:56:20;;;;;;;2.20;1.33;;;;;;;;;;10482971;28;20301;-77
2023/02/20 05:01:23;;;;;;;4.35;1.27;;;;;;;;;;10478129;28;20102;-78
2023/02/20 05:06:26;;;;;;;2.45;1.23;;;;;;;;;;10482622;28;20132;-77
2023/02/20 05:11:30;;;;;;;7.88;1.80;;;;;;;;;;10487016;28;20277;-79
2023/02/20 05:16:32;;;;;;;5.63;1.45;;;;;;;;;;10479226;28;20052;-77
2023/02/20 05:26:58;;;;;;;4.22;1.40;;;;;;;;;;10479516;28;20056;-78
2023/02/20 05:32:00;;;;;;;3.03;1.50;;;;;;;;;;10482500;28;20526;-78
2023/02/20 05:37:03;;;;;;;3.53;1.65;;;;;;;;;;10485740;28;20450;-78
2023/02/20 05:42:07;;;;;;;2.22;1.23;;;;;;;;;;10480081;28;20263;-79
2023/02/20 05:47:10;;;;;;;2.75;1.50;;;;;;;;;;10477924;28;20124;-79
2023/02/20 05:52:13;;;;;;;6.40;2.08;;;;;;;;;;10457966;28;20041;-79
2023/02/20 05:57:17;;;;;;;3.55;1.20;;;;;;;;;;10473016;28;20060;-78
2023/02/20 06:02:20;;;;;;;4.97;2.10;;;;;;;;;;10480886;28;20392;-77
2023/02/20 06:07:22;;;;;;;6.10;2.65;;;;;;;;;;10480506;28;20118;-76
2023/02/20 06:12:27;;;;;;;4.57;1.77;;;;;;;;;;10477947;28;20040;-78
2023/02/20 06:17:31;;;;;;;2.75;1.17;;;;;;;;;;10459102;28;20338;-77
2023/02/20 06:22:34;;;;;;;4.45;1.42;;;;;;;;;;10469935;28;20410;-77
2023/02/20 06:27:39;;;;;;;1.05;0.82;;;;;;;;;;10478265;28;20148;-77
2023/02/20 06:32:42;;;;;;;4.95;2.13;;;;;;;;;;10477669;28;20040;-76
2023/02/20 06:37:44;;;;;;;2.25;1.20;;;;;;;;;;10474605;28;20113;-77
2023/02/20 06:42:49;;;;;;;5.93;2.25;;;;;;;;;;10473584;28;20120;-77
2023/02/20 06:47:51;;;;;;;;;;;;;;;;;;10478353;28;20041;-78
2023/02/20 06:52:53;;;;;;;3.05;1.70;;;;;;;;;;10477235;28;20400;-78
2023/02/20 06:57:58;;;;;;;4.20;1.92;;;;;;;;;;10481079;28;20494;-77
2023/02/20 07:03:00;;;;;;;3.65;1.42;;;;;;;;;;10493460;28;20102;-77
2023/02/20 07:08:03;;;;;;;4.95;2.40;;;;;;;;;;10487129;28;20444;-77
2023/02/20 07:13:07;;;;;;;4.38;2.13;;;;;;;;;;10481723;28;20222;-76
2023/02/20 07:18:10;;;;;;;5.35;1.88;;;;;;;;;;10486169;28;20078;-75
2023/02/20 07:23:13;;;;;;;7.78;2.22;;;;;;;;;;10489444;28;20108;-76
2023/02/20 07:28:17;;;;;;;3.28;1.25;;;;;;;;;;10487670;28;20053;-77
2023/02/20 07:33:21;;;;;;;4.60;1.85;;;;;;;;;;10485053;28;20118;-76
2023/02/20 07:38:24;;;;;;;5.72;2.00;;;;;;;;;;10487163;28;20052;-76
2023/02/20 07:43:28;;;;;;;3.03;1.85;;;;;;;;;;10488353;28;20072;-77
2023/02/20 07:48:30;;;;;;;;;;;;;;;;;;10482827;28;20135;-77
2023/02/20 07:53:33;;;;;;;4.65;1.52;;;;;;;;;;10488315;28;20362;-76
2023/02/20 07:58:37;;;;;;;3.22;1.58;;;;;;;;;;10468681;28;20052;-77
2023/02/20 08:03:40;;;;;;;;;;;;;;;;;;10482599;28;20402;-76
2023/02/20 08:08:46;;;;;;;4.57;1.83;;;;;;;;;;10483599;28;19920;-77
2023/02/20 08:13:50;;;;;;;4.07;1.67;;;;;;;;;;10484902;28;20079;-77
2023/02/20 08:18:53;;;;;;;5.05;2.28;;;;;;;;;;10498532;28;20044;-76
2023/02/20 08:23:56;;;;;;;3.88;2.08;;;;;;;;;;10480660;28;20064;-76
2023/02/20 08:29:00;;;;;;;7.50;3.03;;;;;;;;;;10485255;28;20113;-77
2023/02/20 08:34:03;;;;;;;5.63;2.17;;;;;;;;;;10463994;28;20044;-76
2023/02/20 08:39:06;;;;;;;1.87;1.17;;;;;;;;;;10483302;28;20082;-77
2023/02/20 08:44:10;;;;;;;3.83;1.73;;;;;;;;;;10477833;28;20036;-77
2023/02/20 08:49:12;;;;;;;5.35;1.80;;;;;;;;;;10479926;28;20575;-77
2023/02/20 08:54:15;;;;;;;5.10;1.60;;;;;;;;;;10484347;28;20230;-76
2023/02/20 08:59:19;;;;;;;9.35;2.00;;;;;;;;;;10480041;28;20032;-75
2023/02/20 09:04:23;;;;;;;5.45;2.13;;;;;;;;;;10481430;28;20087;-76
2023/02/20 09:09:26;;;;;;;2.53;1.98;;;;;;;;;;10485139;28;20109;-76
2023/02/20 09:14:30;;;;;;;4.53;2.28;;;;;;;;;;10487186;28;20085;-78
2023/02/20 09:19:33;;;;;;;4.75;2.35;;;;;;;;;;10501223;28;20376;-77
2023/02/20 09:24:36;;;;;;;3.63;1.77;;;;;;;;;;10488886;28;20056;-77
2023/02/20 09:29:40;;;;;;;;;;;;;;;;;;10479892;28;20040;-77
2023/02/20 09:34:44;;;;;;;4.97;2.70;;;;;;;;;;10477542;28;20290;-77
2023/02/20 09:39:46;;;;;;;4.05;2.78;;;;;;;;;;10463912;28;20048;-78
2023/02/20 09:44:52;;;;;;;5.07;2.42;;;;;;;;;;10475386;28;20486;-77
2023/02/20 09:49:59;;;;;;;3.67;1.83;;;;;;;;;;10487990;28;20102;-78
2023/02/20 09:55:08;;;;;;;3.80;1.67;;;;;;;;;;10485447;28;20045;-78
2023/02/20 10:00:13;;;;;;;3.38;2.35;;;;;;;;;;10474450;28;20490;-78
2023/02/20 10:05:20;;;;;;;3.53;2.38;;;;;;;;;;10470071;28;20117;-78
2023/02/20 10:10:25;;;;;;;3.60;2.90;;;;;;;;;;10479292;28;20060;-78
2023/02/20 10:15:32;;;;;;;4.35;2.67;;;;;;;;;;10476531;28;20387;-78
2023/02/20 10:20:39;;;;;;;2.33;1.60;;;;;;;;;;10504074;28;20161;-79
2023/02/20 10:25:43;;;;;;;3.80;2.53;;;;;;;;;;10481822;28;20044;-78
2023/02/20 10:30:48;;;;;;;4.95;2.30;;;;;;;;;;10480178;28;20060;-78
2023/02/20 10:35:55;;;;;;;4.75;2.10;;;;;;;;;;10482284;28;20177;-80
2023/02/20 10:41:03;;;;;;;2.20;1.60;;;;;;;;;;10487690;28;20040;-80
2023/02/20 10:46:08;;;;;;;2.20;1.63;;;;;;;;;;10484077;28;20056;-80
2023/02/20 10:51:17;;;;;;;2.15;1.75;;;;;;;;;;10492584;28;20137;-76
2023/02/20 10:56:24;;;;;;;2.88;2.17;;;;;;;;;;10478551;28;20409;-77
2023/02/20 11:01:27;;;;;;;3.90;2.63;;;;;;;;;;10477167;28;20208;-76
2023/02/20 11:06:34;;;;;;;4.45;2.63;;;;;;;;;;10487303;28;20110;-77
2023/02/20 11:11:38;;;;;;;4.43;2.17;;;;;;;;;;10484228;28;20272;-77
2023/02/20 11:16:43;;;;;;;3.45;2.20;;;;;;;;;;10477773;28;20044;-76
2023/02/20 11:21:48;;;;;;;2.75;2.03;;;;;;;;;;10482015;28;20120;-77
2023/02/20 11:26:55;;;;;;;3.88;1.90;;;;;;;;;;10481644;28;20112;-76
2023/02/20 11:32:14;;;;;;;3.42;2.50;;;;;;;;;;10481128;28;20036;-77
2023/02/20 11:37:18;;;;;;;3.30;2.38;;;;;;;;;;10467263;28;20624;-77
2023/02/20 11:42:20;;;;;;;3.95;2.25;;;;;;;;;;10485395;28;20102;-77
2023/02/20 11:47:25;;;;;;;4.05;2.78;;;;;;;;;;10481081;28;20094;-77
2023/02/20 11:52:29;;;;;;;2.53;2.13;;;;;;;;;;10482057;28;20036;-76
2023/02/20 11:57:34;;;;;;;4.22;2.30;;;;;;;;;;10487105;28;20037;-77
2023/02/20 12:02:37;;;;;;;2.55;2.10;;;;;;;;;;10479909;28;20041;-77
2023/02/20 12:07:42;;;;;;;3.33;2.00;;;;;;;;;;10479262;28;20116;-75
2023/02/20 12:12:45;;;;;;;2.47;2.03;;;;;;;;;;10484189;28;20040;-76
2023/02/20 12:18:14;;;;;;;3.78;2.00;;;;;;;;;;10481187;28;20044;-77
2023/02/20 12:23:24;;;;;;;3.03;1.88;;;;;;;;;;10486444;28;20383;-76
2023/02/20 12:28:33;;;;;;;3.50;1.92;;;;;;;;;;10483705;28;20071;-77
2023/02/20 12:33:42;;;;;;;3.50;1.90;;;;;;;;;;10484591;28;20048;-77
2023/02/20 12:38:48;;;;;;;2.67;1.90;;;;;;;;;;10488403;28;20441;-76
2023/02/20 12:43:57;;;;;;;4.38;2.10;;;;;;;;;;10485247;28;20044;-76
2023/02/20 12:49:21;;;;;;;2.78;2.00;;;;;;;;;;10483408;28;20490;-75
2023/02/20 12:54:34;;;;;;;3.83;1.95;;;;;;;;;;10481204;28;20044;-75
2023/02/20 12:59:43;;;;;;;2.22;1.48;;;;;;;;;;10481682;28;20517;-76
2023/02/20 13:04:48;;;;;;;5.10;2.05;;;;;;;;;;10479445;28;20040;-75
2023/02/20 13:09:57;;;;;;;3.60;2.20;;;;;;;;;;10478878;28;20036;-76
2023/02/20 13:15:05;;;;;;;5.22;2.13;;;;;;;;;;10487301;28;20050;-76
2023/02/20 13:20:15;;;;;;;2.83;1.98;;;;;;;;;;10479251;28;20067;-75
2023/02/20 13:25:40;;;;;;;3.40;1.90;;;;;;;;;;10475358;28;20032;-75
2023/02/20 13:30:44;;;;;;;3.88;2.00;;;;;;;;;;10472717;28;20487;-77
2023/02/20 13:35:50;;;;;;;4.32;1.70;;;;;;;;;;10429571;28;20482;-76
2023/02/20 13:41:08;;;;;;;4.07;1.80;;;;;;;;;;10439086;28;20056;-76
2023/02/20 13:46:21;;;;;;;2.10;1.52;;;;;;;;;;10434143;28;20136;-75
2023/02/20 13:51:34;;;;;;;5.22;1.90;;;;;;;;;;10443648;28;20156;-75
2023/02/20 13:56:45;;;;;;;1.55;1.45;;;;;;;;;;10440444;28;20048;-74
2023/02/20 14:01:56;;;;;;;4.90;2.00;;;;;;;;;;10437890;28;20433;-74
2023/02/20 14:06:58;;;;;;;5.32;2.05;;;;;;;;;;10442921;28;20044;-75
2023/02/20 14:12:07;;;;;;;6.50;1.77;;;;;;;;;;10432297;28;20130;-75
2023/02/20 14:17:13;;;;;;;2.47;1.30;;;;;;;;;;10431127;28;20171;-75
2023/02/20 14:22:24;;;;;;;3.97;1.65;;;;;;;;;;10434053;28;20053;-76
2023/02/20 14:27:29;;;;;;;2.47;1.10;;;;;;;;;;10435274;28;20048;-77
2023/02/20 14:32:32;;;;;;;1.88;1.17;;;;;;;;;;10437931;28;20139;-75
2023/02/20 14:37:40;;;;;;;2.15;1.40;;;;;;;;;;10438835;28;20728;-75
2023/02/20 14:42:45;;;;;;;4.82;1.63;;;;;;;;;;10433301;28;20491;-75
2023/02/20 14:47:51;;;;;;;2.50;1.05;;;;;;;;;;10438490;28;20422;-75
2023/02/20 14:53:01;;;;;;;1.83;1.10;;;;;;;;;;10427692;28;20873;-75
2023/02/20 14:58:08;;;;;;;2.42;1.40;;;;;;;;;;10433156;28;20457;-76
2023/02/20 15:03:18;;;;;;;1.73;1.10;;;;;;;;;;10446374;28;20041;-88
2023/02/20 15:08:34;;;;;;;1.98;1.00;;;;;;;;;;10435260;28;20504;-79
2023/02/20 15:13:39;;;;;;;1.50;0.70;;;;;;;;;;10451967;28;20033;-83
2023/02/20 15:18:43;;;;;;;1.58;0.93;;;;;;;;;;10445166;28;20383;-85
2023/02/20 15:23:46;;;;;;;0.65;0.65;;;;;;;;;;10452979;28;20071;-85
2023/02/20 15:29:09;;;;;;;3.15;0.90;;;;;;;;;;10445990;28;20502;-85
2023/02/20 15:34:13;;;;;;;2.60;1.00;;;;;;;;;;10449533;28;20560;-82
2023/02/20 15:39:16;;;;;;;1.10;0.85;;;;;;;;;;10447430;28;20044;-82
2023/02/20 15:44:21;;;;;;;1.58;1.48;;;;;;;;;;10452678;28;20040;-81
2023/02/20 15:49:23;;;;;;;1.92;0.75;;;;;;;;;;10451982;28;20040;-83
2023/02/20 15:54:26;;;;;;;1.75;0.80;;;;;;;;;;10476711;28;20051;-83
2023/02/20 15:59:30;;;;;;;1.20;0.57;;;;;;;;;;10487289;28;20040;-84
2023/02/20 16:04:33;;;;;;;1.77;1.00;;;;;;;;;;10486748;28;20277;-83
2023/02/20 16:09:35;;;;;;;1.23;0.60;;;;;;;;;;10485736;28;20087;-83
2023/02/20 16:14:40;;;;;;;3.27;0.90;;;;;;;;;;10489347;28;21745;-83
2023/02/20 16:19:43;;;;;;;1.73;0.70;;;;;;;;;;10488336;28;20406;-83
2023/02/20 16:24:45;;;;;;;2.15;0.70;;;;;;;;;;10491428;28;20048;-82
2023/02/20 16:29:49;;;;;;;1.87;1.03;;;;;;;;;;10496929;28;20041;-84
2023/02/20 16:34:53;;;;;;;1.90;0.88;;;;;;;;;;10485674;28;20310;-76
2023/02/20 16:39:56;;;;;;;3.75;0.93;;;;;;;;;;10478625;28;20082;-76
2023/02/20 16:45:01;;;;;;;3.10;1.35;;;;;;;;;;10483064;28;20051;-77
2023/02/20 16:50:06;;;;;;;3.85;1.33;;;;;;;;;;10483941;28;20089;-76
2023/02/20 16:55:17;;;;;;;2.45;1.20;;;;;;;;;;10486983;28;20094;-76
2023/02/20 17:00:24;;;;;;;2.55;1.05;;;;;;;;;;10478543;28;20044;-76
2023/02/20 17:05:28;;;;;;;2.33;1.00;;;;;;;;;;10484293;28;20033;-77
2023/02/20 17:10:31;;;;;;;3.72;1.38;;;;;;;;;;10486248;28;20119;-75
2023/02/20 17:15:35;;;;;;;4.72;1.20;;;;;;;;;;10487767;28;20045;-76
2023/02/20 17:20:39;;;;;;;2.45;1.23;;;;;;;;;;10480169;28;20425;-78
2023/02/20 17:25:41;;;;;;;3.63;1.13;;;;;;;;;;10487115;28;20037;-76
2023/02/20 17:30:48;;;;;;;2.75;1.20;;;;;;;;;;10499496;28;20067;-76
2023/02/20 17:35:50;;;;;;;4.28;1.27;;;;;;;;;;10477869;28;20045;-77
2023/02/20 17:40:53;;;;;;;5.30;1.50;;;;;;;;;;10495911;28;20097;-76
2023/02/20 17:45:57;;;;;;;3.35;1.50;;;;;;;;;;10483922;28;20410;-76
2023/02/20 17:50:59;;;;;;;;;;;;;;;;;;10490058;28;20028;-77
2023/02/20 17:56:02;;;;;;;7.78;2.38;;;;;;;;;;10487003;28;19936;-77
2023/02/20 18:01:06;;;;;;;2.95;1.58;;;;;;;;;;10492568;28;20535;-76
2023/02/20 18:06:09;;;;;;;5.68;1.95;;;;;;;;;;10490373;28;20132;-75
2023/02/20 18:11:13;;;;;;;10.02;1.85;;;;;;;;;;10485873;28;20479;-77
2023/02/20 18:16:17;;;;;;;3.83;1.80;;;;;;;;;;10480145;28;20045;-77
2023/02/20 18:21:19;;;;;;;;;;;;;;;;;;10478099;28;20053;-77
2023/02/20 18:26:22;;;;;;;2.45;1.33;;;;;;;;;;10476712;28;20030;-77
2023/02/20 18:31:27;;;;;;;2.78;1.10;;;;;;;;;;10477051;28;20049;-77
2023/02/20 18:36:30;;;;;;;1.13;0.73;;;;;;;;;;10475252;28;20039;-77
2023/02/20 18:41:33;;;;;;;4.72;1.67;;;;;;;;;;10477726;28;20064;-76
2023/02/20 18:46:38;;;;;;;2.95;2.05;;;;;;;;;;10486115;28;20033;-76
2023/02/20 18:51:42;;;;;;;5.60;1.70;;;;;;;;;;10481763;28;20544;-76
2023/02/20 18:56:46;;;;;;;1.80;0.88;;;;;;;;;;10482530;28;20397;-77
2023/02/20 19:01:50;;;;;;;5.53;1.50;;;;;;;;;;10482152;28;20040;-77
2023/02/20 19:06:53;;;;;;;1.92;0.90;;;;;;;;;;10477235;28;20048;-76
2023/02/20 19:11:56;;;;;;;5.00;1.23;;;;;;;;;;10486939;28;20047;-77
2023/02/20 19:17:01;;;;;;;5.13;0.90;;;;;;;;;;10484794;28;20064;-77
2023/02/20 19:22:06;;;;;;;8.48;3.15;;;;;;;;;;10485073;28;20151;-77
2023/02/20 19:27:10;;;;;;;1.73;0.98;;;;;;;;;;10483493;28;20498;-78
2023/02/20 19:32:14;;;;;;;6.30;1.45;;;;;;;;;;10482732;28;20052;-77
2023/02/20 19:37:17;;;;;;;;;;;;;;;;;;10481350;28;20047;-77
2023/02/20 19:42:19;;;;;;;3.70;1.58;;;;;;;;;;10491907;28;20394;-78
2023/02/20 19:47:24;;;;;;;4.45;1.48;;;;;;;;;;10468756;28;20129;-77
2023/02/20 19:52:26;;;;;;;;;;;;;;;;;;10484330;28;20036;-77
2023/02/20 19:57:29;;;;;;;3.83;1.80;;;;;;;;;;10487678;28;20254;-77
2023/02/20 20:02:33;;;;;;;2.33;0.95;;;;;;;;;;10489175;28;20086;-76
2023/02/20 20:07:35;;;;;;;2.30;0.93;;;;;;;;;;10479331;28;20086;-76
2023/02/20 20:12:47;;;;;;;13.20;3.75;;;;;;;;;;10480977;28;20053;-77
2023/02/20 20:17:52;;;;;;;2.35;1.38;;;;;;;;;;10475554;28;20055;-77
2023/02/20 20:22:56;;;;;;;2.50;1.00;;;;;;;;;;10482894;28;20099;-77
2023/02/20 20:28:01;;;;;;;3.42;1.25;;;;;;;;;;10486484;28;20182;-76
2023/02/20 20:33:05;;;;;;;5.47;1.30;;;;;;;;;;10480651;28;20444;-76
2023/02/20 20:38:08;;;;;;;3.78;1.60;;;;;;;;;;10486365;28;20044;-76
2023/02/20 20:43:13;;;;;;;2.38;1.55;;;;;;;;;;10489127;28;20062;-76
2023/02/20 20:48:18;;;;;;;3.85;1.40;;;;;;;;;;10478744;28;20043;-75
2023/02/20 20:53:20;;;;;;;1.40;0.77;;;;;;;;;;10483019;28;20041;-77
2023/02/20 20:58:23;;;;;;;3.35;1.42;;;;;;;;;;10480958;28;20086;-75
2023/02/20 21:03:27;;;;;;;3.90;1.42;;;;;;;;;;10490615;28;20039;-76
2023/02/20 21:08:32;;;;;;;2.13;1.38;;;;;;;;;;10477826;28;20049;-76
2023/02/20 21:13:35;;;;;;;2.88;1.30;;;;;;;;;;10484346;28;20279;-76
2023/02/20 21:18:39;;;;;;;3.20;1.50;;;;;;;;;;10476330;28;20037;-76
2023/02/20 21:23:44;;;;;;;2.97;1.20;;;;;;;;;;10473437;28;20069;-77
2023/02/20 21:28:47;;;;;;;3.47;1.38;;;;;;;;;;10460812;28;20036;-77
2023/02/20 21:33:52;;;;;;;3.55;1.90;;;;;;;;;;10481185;28;20055;-76
2023/02/20 21:38:54;;;;;;;2.17;0.98;;;;;;;;;;10470729;28;20033;-77
2023/02/20 21:49:19;;;;;;;2.65;1.23;;;;;;;;;;10473663;28;20055;-75
2023/02/20 21:54:23;;;;;;;4.60;1.52;;;;;;;;;;10479250;28;20047;-74
